Time;durP1;ratioP1;P1;durP2;ratioP2;P2;SDS_P1;SDS_P2;PMS_P1;PMS_P2;Temp;Humidity;BMP_temperature;BMP_pressure;BME280_temperature;BME280_humidity;BME280_pressure;Samples;Min_cycle;Max_cycle;Signal;HPM_P1;HPM_P2
2022/12/15 00:39:20;;;;;;;21.73;12.50;;;;;;;-4.23;100.00;97981.94;5114862;28;20657;-78
2022/12/15 00:41:48;;;;;;;27.17;13.60;;;;;;;-4.29;100.00;97983.81;5110474;28;20195;-78
2022/12/15 00:44:16;;;;;;;25.57;13.80;;;;;;;-4.23;100.00;97992.28;5112571;28;20191;-76
2022/12/15 00:46:54;;;;;;;25.17;13.77;;;;;;;-4.17;100.00;97980.94;5094450;28;20214;-78
2022/12/15 01:20:16;;;;;;;23.43;13.83;;;;;;;-3.94;100.00;98039.84;5118192;28;20293;-78
2022/12/15 01:22:45;;;;;;;22.27;12.97;;;;;;;-3.88;100.00;98032.78;5111494;28;20329;-78
2022/12/15 01:25:16;;;;;;;23.87;13.07;;;;;;;-3.80;100.00;98036.03;5128015;27;20283;-78
2022/12/15 01:27:48;;;;;;;24.17;13.30;;;;;;;-3.61;100.00;98040.75;5131158;27;20695;-78
2022/12/15 01:30:19;;;;;;;24.47;13.53;;;;;;;-3.65;100.00;98040.00;5051057;28;20197;-78
2022/12/15 01:32:48;;;;;;;24.70;13.87;;;;;;;-3.65;100.00;98032.22;5049574;28;20193;-78
2022/12/15 01:35:19;;;;;;;24.43;13.87;;;;;;;-3.83;100.00;98041.28;5050971;28;20189;-78
2022/12/15 01:37:47;;;;;;;25.63;14.57;;;;;;;-3.67;100.00;98044.31;4972430;28;20203;-78
2022/12/15 01:43:12;;;;;;;24.13;13.40;;;;;;;-3.58;100.00;98056.19;4971685;28;20196;-78
2022/12/15 01:46:08;;;;;;;20.90;13.27;;;;;;;-3.59;100.00;98054.50;4967539;28;20188;-78
2022/12/15 01:48:42;;;;;;;27.47;14.47;;;;;;;-3.67;100.00;98065.03;4933244;28;20698;-77
2022/12/15 01:51:18;;;;;;;26.23;13.93;;;;;;;-3.54;100.00;98060.41;4965051;28;20221;-78
2022/12/15 01:53:55;;;;;;;25.97;14.10;;;;;;;-3.53;100.00;98057.78;4914607;29;20576;-78
2022/12/15 01:56:27;;;;;;;25.10;13.47;;;;;;;-3.52;100.00;98059.47;4914402;29;20623;-78
2022/12/15 01:59:06;;;;;;;23.90;13.63;;;;;;;-3.61;100.00;98066.63;4914314;29;20228;-78
2022/12/15 02:01:35;;;;;;;24.63;13.33;;;;;;;-3.58;100.00;98075.16;4963789;28;20209;-79
2022/12/15 02:04:07;;;;;;;24.70;13.23;;;;;;;-3.57;100.00;98078.56;5037854;28;20200;-78
2022/12/15 02:06:37;;;;;;;24.20;13.57;;;;;;;-3.45;100.00;98093.81;5037388;28;20200;-78
2022/12/15 02:09:06;;;;;;;23.30;14.13;;;;;;;-3.50;100.00;98090.47;5064324;28;20256;-78
2022/12/15 02:11:56;;;;;;;25.87;13.87;;;;;;;-3.42;100.00;98092.88;5098811;27;20198;-78
2022/12/15 02:14:41;;;;;;;26.30;14.03;;;;;;;-3.51;100.00;98093.97;5098213;27;20749;-78
2022/12/15 02:17:22;;;;;;;22.27;13.17;;;;;;;-3.50;100.00;98087.91;5151092;27;20201;-78
2022/12/15 02:20:26;;;;;;;20.57;13.07;;;;;;;-3.44;100.00;98092.06;5151816;27;20197;-78
2022/12/15 02:23:24;;;;;;;24.63;12.50;;;;;;;-3.33;100.00;98095.25;5127248;27;20201;-78
2022/12/15 02:26:23;;;;;;;22.90;13.40;;;;;;;-3.32;100.00;98096.94;5143960;27;20189;-78
2022/12/15 02:29:02;;;;;;;22.93;13.60;;;;;;;-3.42;100.00;98096.31;5154188;27;20270;-78
2022/12/15 02:31:50;;;;;;;23.60;13.93;;;;;;;-3.31;100.00;98106.41;5151359;27;20197;-78
2022/12/15 02:34:26;;;;;;;25.67;13.67;;;;;;;-3.24;100.00;98106.22;5152841;27;20207;-78
2022/12/15 02:37:00;;;;;;;22.13;13.70;;;;;;;-3.24;100.00;98120.91;5118151;27;20194;-78
2022/12/15 02:39:29;;;;;;;21.77;12.97;;;;;;;-3.28;100.00;98117.53;5147221;27;20590;-78
2022/12/15 02:41:57;;;;;;;21.47;12.90;;;;;;;-3.29;100.00;98118.41;5149642;27;20201;-78
2022/12/15 02:44:29;;;;;;;24.40;12.93;;;;;;;-3.22;100.00;98132.91;5151200;27;20197;-78
2022/12/15 02:47:33;;;;;;;22.80;13.03;;;;;;;-3.13;100.00;98126.63;5148865;27;20238;-78
2022/12/15 02:50:45;;;;;;;25.53;14.33;;;;;;;-3.10;100.00;98121.38;5153865;27;20213;-78
2022/12/15 02:53:32;;;;;;;22.03;13.10;;;;;;;-3.04;100.00;98121.22;5154018;27;20208;-78
2022/12/15 02:56:10;;;;;;;24.63;13.40;;;;;;;-3.20;100.00;98119.91;5150130;27;20193;-78
2022/12/15 02:58:47;;;;;;;20.17;12.50;;;;;;;-3.04;100.00;98126.41;5143750;27;20247;-79
2022/12/15 03:01:22;;;;;;;25.63;13.97;;;;;;;-3.11;100.00;98119.69;5151715;27;20201;-78
2022/12/15 03:03:53;;;;;;;25.63;13.97;;;;;;;-3.23;100.00;98117.41;5149321;27;20276;-78
2022/12/15 03:06:24;;;;;;;24.80;14.43;;;;;;;-3.13;100.00;98129.22;5115342;27;20194;-78
2022/12/15 03:08:57;;;;;;;24.30;14.27;;;;;;;-3.14;100.00;98131.88;5151033;27;20217;-78
2022/12/15 03:11:25;;;;;;;25.33;13.87;;;;;;;-3.16;100.00;98129.31;5149288;27;20197;-78
2022/12/15 03:13:54;;;;;;;29.07;15.47;;;;;;;-3.18;100.00;98131.94;5131646;27;20254;-78
2022/12/15 03:16:22;;;;;;;25.00;15.10;;;;;;;-3.06;100.00;98129.94;5150545;27;20190;-78
2022/12/15 03:18:52;;;;;;;23.07;13.97;;;;;;;-2.94;100.00;98138.22;5141821;27;20201;-78
2022/12/15 03:21:20;;;;;;;28.03;15.60;;;;;;;-2.88;100.00;98135.47;5151823;27;20225;-78
2022/12/15 03:23:49;;;;;;;30.53;15.00;;;;;;;-2.88;100.00;98132.88;5090891;28;20245;-78
2022/12/15 03:26:19;;;;;;;25.77;14.23;;;;;;;-2.98;100.00;98141.78;5085690;28;20208;-78
2022/12/15 03:28:47;;;;;;;26.13;15.07;;;;;;;-2.99;100.00;98140.09;5087245;28;20307;-78
2022/12/15 03:31:15;;;;;;;28.23;14.97;;;;;;;-2.99;100.00;98144.41;5089648;28;20246;-78
2022/12/15 03:33:45;;;;;;;28.70;15.27;;;;;;;-2.95;100.00;98135.66;5088803;28;20187;-78
2022/12/15 03:36:13;;;;;;;27.43;15.73;;;;;;;-2.94;100.00;98140.81;5078950;28;20256;-78
2022/12/15 03:38:41;;;;;;;25.57;14.47;;;;;;;-2.83;100.00;98137.94;5088383;28;20301;-78
2022/12/15 03:41:09;;;;;;;26.43;14.77;;;;;;;-2.97;100.00;98142.63;5053189;27;20189;-78
2022/12/15 03:43:39;;;;;;;25.90;14.40;;;;;;;-3.01;100.00;98151.38;5152427;27;20200;-78
2022/12/15 03:46:07;;;;;;;26.20;16.23;;;;;;;-3.02;100.00;98154.84;5065265;28;20201;-78
2022/12/15 03:48:35;;;;;;;28.30;15.63;;;;;;;-3.15;100.00;98163.81;5069257;28;20223;-78
2022/12/15 03:51:04;;;;;;;30.40;16.00;;;;;;;-3.17;100.00;98169.91;5056753;28;20700;-77
2022/12/15 03:53:33;;;;;;;28.03;16.50;;;;;;;-3.09;100.00;98164.50;5075495;28;20307;-78
2022/12/15 03:56:01;;;;;;;28.07;15.93;;;;;;;-3.07;100.00;98175.69;5062273;28;20200;-78
2022/12/15 03:58:31;;;;;;;23.70;13.63;;;;;;;-2.96;100.00;98168.50;5067832;28;20210;-78
2022/12/15 04:01:10;;;;;;;27.43;15.37;;;;;;;-2.93;100.00;98170.16;5038574;28;20196;-78
2022/12/15 04:03:38;;;;;;;28.47;14.40;;;;;;;-2.95;100.00;98167.59;5081387;27;20185;-78
2022/12/15 04:06:07;;;;;;;29.47;15.47;;;;;;;-2.92;100.00;98172.69;5146275;27;20262;-78
2022/12/15 04:08:37;;;;;;;27.07;15.50;;;;;;;-3.04;100.00;98179.94;5147371;27;20224;-77
2022/12/15 04:11:05;;;;;;;30.53;16.13;;;;;;;-3.48;100.00;98187.03;5151956;27;20709;-78
2022/12/15 04:13:34;;;;;;;26.63;14.70;;;;;;;-3.51;100.00;98182.78;5152958;27;20342;-78
2022/12/15 04:16:05;;;;;;;24.43;14.70;;;;;;;-3.31;100.00;98179.72;5148955;27;20190;-78
2022/12/15 04:18:33;;;;;;;27.67;16.63;;;;;;;-3.33;100.00;98191.00;5154940;27;20201;-78
2022/12/15 04:21:00;;;;;;;30.77;16.83;;;;;;;-3.17;100.00;98192.34;5159324;27;20306;-78
2022/12/15 04:23:29;;;;;;;32.77;16.93;;;;;;;-3.40;100.00;98179.94;5156776;27;20297;-78
2022/12/15 05:32:35;;;;;;;38.63;20.33;;;;;;;-3.21;100.00;98250.25;5153798;27;20198;-78
2022/12/15 05:35:03;;;;;;;38.17;21.20;;;;;;;-3.08;100.00;98253.44;5147850;27;20197;-78
2022/12/15 05:37:34;;;;;;;40.30;20.53;;;;;;;-3.10;100.00;98253.44;5151891;27;20238;-78
2022/12/15 05:40:02;;;;;;;35.37;20.83;;;;;;;-3.06;100.00;98251.66;5151910;27;20204;-78
2022/12/15 05:42:31;;;;;;;39.60;20.87;;;;;;;-2.97;100.00;98251.41;5151037;27;20246;-78
2022/12/15 05:45:00;;;;;;;37.93;21.23;;;;;;;-2.97;100.00;98254.84;5150174;27;20379;-78
2022/12/15 05:47:30;;;;;;;37.43;21.97;;;;;;;-3.19;100.00;98251.06;5146818;27;20201;-78
2022/12/15 05:49:58;;;;;;;34.20;20.47;;;;;;;-3.15;100.00;98262.22;5151727;27;20213;-78
2022/12/15 05:52:26;;;;;;;37.10;20.37;;;;;;;-3.08;100.00;98267.22;5111235;28;20203;-78
2022/12/15 05:54:56;;;;;;;38.27;21.50;;;;;;;-3.08;100.00;98264.63;5110835;28;20198;-78
2022/12/15 05:57:25;;;;;;;35.33;21.13;;;;;;;-3.02;100.00;98274.81;5111373;28;20206;-79
2022/12/15 05:59:53;;;;;;;31.17;18.40;;;;;;;-2.89;100.00;98280.59;5105235;28;20195;-78
2022/12/15 06:02:22;;;;;;;33.40;19.53;;;;;;;-2.92;100.00;98276.31;5107731;28;20187;-78
2022/12/15 06:04:51;;;;;;;31.07;18.70;;;;;;;-2.83;100.00;98284.75;5105892;28;20203;-78
2022/12/15 06:07:20;;;;;;;29.93;17.40;;;;;;;-2.88;100.00;98283.13;5110974;28;20282;-78
2022/12/15 06:09:50;;;;;;;30.70;17.43;;;;;;;-2.91;100.00;98283.19;5115395;27;20198;-78
2022/12/15 06:12:20;;;;;;;31.20;18.00;;;;;;;-2.88;100.00;98282.28;5145925;27;20228;-78
2022/12/15 06:14:50;;;;;;;27.70;16.70;;;;;;;-2.86;100.00;98280.50;5154536;27;20182;-78
2022/12/15 06:17:18;;;;;;;31.27;18.10;;;;;;;-2.86;100.00;98282.25;5087389;28;20199;-79
2022/12/15 06:19:47;;;;;;;33.70;19.03;;;;;;;-2.96;100.00;98291.97;5087522;28;20221;-78
2022/12/15 06:22:15;;;;;;;35.10;19.57;;;;;;;-2.99;100.00;98292.91;5083155;28;20222;-78
2022/12/15 06:24:43;;;;;;;32.40;19.23;;;;;;;-3.00;100.00;98287.72;5086917;28;20196;-78
2022/12/15 06:27:12;;;;;;;38.10;20.37;;;;;;;-3.01;100.00;98299.84;5087885;28;20204;-78
2022/12/15 06:29:45;;;;;;;34.40;19.53;;;;;;;-3.10;100.00;98297.47;5087746;28;20187;-78
2022/12/15 06:32:14;;;;;;;34.47;19.17;;;;;;;-3.00;100.00;98304.13;5083033;28;20294;-78
2022/12/15 06:34:43;;;;;;;37.47;19.43;;;;;;;-2.98;100.00;98299.78;5091623;27;20254;-78
2022/12/15 06:37:11;;;;;;;37.93;21.43;;;;;;;-3.06;100.00;98295.66;5151009;27;20597;-78
2022/12/15 06:39:42;;;;;;;35.17;20.33;;;;;;;-3.15;100.00;98296.72;5146539;27;20200;-78
2022/12/15 06:42:10;;;;;;;36.40;19.80;;;;;;;-3.05;100.00;98299.97;5151005;27;20201;-78
2022/12/15 06:44:38;;;;;;;35.33;19.33;;;;;;;-3.26;100.00;98299.56;5151049;27;20186;-78
2022/12/15 06:47:08;;;;;;;38.13;20.17;;;;;;;-3.15;100.00;98304.50;5149408;27;20197;-78
2022/12/15 06:49:37;;;;;;;37.60;20.70;;;;;;;-3.09;100.00;98304.34;5147277;27;20211;-78
2022/12/15 06:52:05;;;;;;;36.53;20.60;;;;;;;-3.00;100.00;98311.03;5149384;27;20381;-78
2022/12/15 06:54:34;;;;;;;51.70;30.33;;;;;;;-3.01;100.00;98315.38;5150142;27;20200;-78
2022/12/15 06:57:03;;;;;;;35.70;20.47;;;;;;;-2.91;100.00;98322.03;5094185;28;20188;-78
2022/12/15 06:59:32;;;;;;;31.83;17.23;;;;;;;-2.88;100.00;98321.13;5092100;28;20199;-78
2022/12/15 07:02:01;;;;;;;32.10;17.30;;;;;;;-3.28;100.00;98327.22;5069712;28;20204;-78
2022/12/15 07:04:32;;;;;;;32.93;17.33;;;;;;;-3.26;100.00;98324.59;5067277;28;20290;-78
2022/12/15 07:07:00;;;;;;;34.73;18.40;;;;;;;-3.22;100.00;98323.63;5070998;28;20196;-77
2022/12/15 07:09:29;;;;;;;35.23;19.00;;;;;;;-3.33;100.00;98329.06;5071902;28;20204;-78
2022/12/15 07:11:59;;;;;;;33.47;18.57;;;;;;;-3.24;100.00;98322.81;5072458;28;20216;-78
2022/12/15 07:14:27;;;;;;;36.93;19.20;;;;;;;-3.26;100.00;98317.69;4977311;28;20195;-77
2022/12/15 07:16:58;;;;;;;57.10;30.37;;;;;;;-3.32;100.00;98319.56;4971820;28;20306;-77
2022/12/15 07:19:32;;;;;;;38.37;20.20;;;;;;;-3.32;100.00;98322.13;4971602;28;20195;-78
2022/12/15 07:22:00;;;;;;;35.30;20.10;;;;;;;-3.23;100.00;98324.53;4993179;28;20247;-78
2022/12/15 07:24:29;;;;;;;41.67;25.30;;;;;;;-3.21;100.00;98327.94;4991567;28;20203;-78
2022/12/15 07:26:57;;;;;;;37.90;20.10;;;;;;;-3.10;100.00;98325.09;4993095;28;20265;-78
2022/12/15 07:29:26;;;;;;;35.23;18.53;;;;;;;-3.04;100.00;98325.81;5036987;28;20200;-78
2022/12/15 07:31:54;;;;;;;42.90;20.47;;;;;;;-3.23;100.00;98324.53;5068747;27;20252;-78
2022/12/15 07:34:23;;;;;;;37.00;18.77;;;;;;;-3.18;100.00;98338.25;5152636;27;20201;-78
2022/12/15 07:36:52;;;;;;;40.60;20.50;;;;;;;-3.36;100.00;98339.47;5157966;27;20186;-78
2022/12/15 07:39:21;;;;;;;40.00;20.90;;;;;;;-3.21;100.00;98343.47;5153746;27;20223;-78
2022/12/15 07:41:49;;;;;;;41.43;20.50;;;;;;;-3.20;100.00;98343.41;5111323;28;20194;-78
2022/12/15 07:44:18;;;;;;;34.50;18.43;;;;;;;-3.14;100.00;98350.22;5111391;28;20191;-78
2022/12/15 07:46:48;;;;;;;41.47;20.77;;;;;;;-3.08;100.00;98336.28;5106604;28;20206;-77
2022/12/15 07:49:18;;;;;;;35.33;18.47;;;;;;;-3.04;100.00;98345.69;5112293;28;20318;-78
2022/12/15 07:51:46;;;;;;;40.10;20.13;;;;;;;-3.00;100.00;98353.34;5112931;28;20215;-78
2022/12/15 07:54:17;;;;;;;39.60;21.10;;;;;;;-3.09;100.00;98357.88;5112562;28;20198;-77
2022/12/15 07:56:46;;;;;;;45.67;23.33;;;;;;;-3.06;100.00;98356.06;5108293;28;20411;-78
2022/12/15 07:59:17;;;;;;;47.17;22.97;;;;;;;-2.96;100.00;98364.50;5113421;28;20202;-78
2022/12/15 08:01:45;;;;;;;38.10;21.00;;;;;;;-2.96;100.00;98348.94;5090381;28;20196;-78
2022/12/15 08:04:14;;;;;;;43.17;21.83;;;;;;;-2.91;100.00;98353.13;5084926;28;20191;-78
2022/12/15 08:06:42;;;;;;;41.63;20.00;;;;;;;-2.87;100.00;98351.34;5095824;28;20252;-78
2022/12/15 08:09:12;;;;;;;42.30;21.37;;;;;;;-2.95;100.00;98353.25;5103766;28;20223;-78
2022/12/15 08:11:42;;;;;;;47.40;24.43;;;;;;;-3.22;100.00;98358.16;5109938;28;20217;-78
2022/12/15 08:14:11;;;;;;;42.20;23.03;;;;;;;-3.21;100.00;98364.16;5108147;28;20199;-78
2022/12/15 08:16:44;;;;;;;39.93;21.03;;;;;;;-3.03;100.00;98370.69;5108531;28;20206;-78
2022/12/15 08:19:14;;;;;;;45.30;22.47;;;;;;;-2.94;100.00;98378.25;5105641;28;20278;-78
2022/12/15 08:21:45;;;;;;;45.47;23.87;;;;;;;-2.93;100.00;98372.19;5112978;28;20241;-78
2022/12/15 08:24:14;;;;;;;46.33;22.90;;;;;;;-2.90;100.00;98379.88;5076912;28;20666;-78
2022/12/15 08:26:46;;;;;;;52.10;29.80;;;;;;;-2.76;100.00;98371.81;5120080;27;20202;-78
2022/12/15 08:29:17;;;;;;;49.93;27.50;;;;;;;-2.73;100.00;98375.16;5132988;27;20190;-78
2022/12/15 08:32:06;;;;;;;44.47;22.17;;;;;;;-2.90;100.00;98378.13;5072335;28;20227;-78
2022/12/15 08:34:35;;;;;;;46.90;22.37;;;;;;;-2.90;100.00;98370.38;5071276;28;20195;-78
2022/12/15 08:37:03;;;;;;;38.97;19.47;;;;;;;-2.84;100.00;98368.53;4997860;28;20238;-78
2022/12/15 08:39:32;;;;;;;45.33;22.07;;;;;;;-2.83;100.00;98367.66;4991892;28;20230;-78
2022/12/15 08:42:02;;;;;;;52.40;26.27;;;;;;;-2.92;100.00;98372.16;4992809;28;20206;-78
2022/12/15 08:44:30;;;;;;;38.03;18.40;;;;;;;-2.91;100.00;98373.00;4992480;28;20285;-78
2022/12/15 08:46:59;;;;;;;40.93;19.90;;;;;;;-2.89;100.00;98377.28;4992595;28;20351;-78
2022/12/15 08:49:27;;;;;;;41.73;19.07;;;;;;;-2.93;100.00;98380.81;5011310;28;20648;-78
2022/12/15 08:51:55;;;;;;;31.20;16.67;;;;;;;-3.02;100.00;98393.09;5028312;28;20267;-78
2022/12/15 08:54:24;;;;;;;34.87;17.30;;;;;;;-3.14;100.00;98402.00;5034592;28;20221;-78
2022/12/15 08:56:52;;;;;;;40.93;20.97;;;;;;;-3.07;100.00;98400.16;5087731;28;20367;-78
2022/12/15 08:59:22;;;;;;;38.70;19.37;;;;;;;-2.95;100.00;98392.94;5088431;28;20257;-78
2022/12/15 09:01:51;;;;;;;35.17;16.87;;;;;;;-3.05;100.00;98386.28;5086917;28;20196;-78
2022/12/15 09:04:19;;;;;;;39.27;17.63;;;;;;;-3.25;100.00;98394.47;5084079;28;20194;-78
2022/12/15 09:06:48;;;;;;;35.57;17.77;;;;;;;-3.63;100.00;98395.25;5088833;28;20192;-78
2022/12/15 09:09:18;;;;;;;34.53;17.10;;;;;;;-3.49;100.00;98413.94;5093052;27;20198;-78
2022/12/15 09:11:46;;;;;;;34.10;16.10;;;;;;;-3.38;100.00;98418.88;5129860;27;20226;-78
2022/12/15 09:14:15;;;;;;;32.63;16.93;;;;;;;-3.30;100.00;98419.59;5155706;27;20182;-77
2022/12/15 09:16:45;;;;;;;32.90;15.97;;;;;;;-3.28;100.00;98415.25;5151476;27;20202;-77
2022/12/15 09:19:18;;;;;;;31.90;16.07;;;;;;;-3.10;100.00;98423.50;5116227;27;20407;-77
2022/12/15 09:21:47;;;;;;;31.87;16.67;;;;;;;-3.01;100.00;98418.97;5064503;28;20224;-77
2022/12/15 09:24:15;;;;;;;32.07;16.57;;;;;;;-3.07;100.00;98421.72;5066066;28;20204;-78
2022/12/15 09:26:56;;;;;;;36.83;17.73;;;;;;;-3.08;100.00;98424.34;5065208;28;20214;-78
2022/12/15 09:29:24;;;;;;;31.20;15.50;;;;;;;-3.05;100.00;98421.69;5067675;28;20198;-78
2022/12/15 09:31:56;;;;;;;32.27;15.83;;;;;;;-2.86;100.00;98416.94;5068425;28;20274;-77
2022/12/15 09:34:25;;;;;;;35.43;16.40;;;;;;;-2.91;100.00;98411.84;5063718;28;20200;-78
2022/12/15 09:36:53;;;;;;;36.00;18.47;;;;;;;-2.89;100.00;98425.66;5065635;28;20208;-78
2022/12/15 09:39:22;;;;;;;31.33;15.87;;;;;;;-2.80;100.00;98438.38;5066521;28;20193;-78
2022/12/15 09:41:55;;;;;;;36.63;17.60;;;;;;;-2.74;100.00;98446.03;5071209;28;20215;-78
2022/12/15 09:44:25;;;;;;;33.60;16.77;;;;;;;-2.66;100.00;98435.50;5070675;28;20261;-78
2022/12/15 09:47:24;;;;;;;33.27;17.53;;;;;;;-2.98;100.00;98426.69;5123633;27;20190;-78
2022/12/15 09:49:55;;;;;;;28.13;15.17;;;;;;;-2.92;100.00;98438.66;5154541;27;20193;-79
2022/12/15 09:52:26;;;;;;;36.40;16.80;;;;;;;-3.12;100.00;98438.22;5151006;27;20270;-78
2022/12/15 09:54:55;;;;;;;31.67;15.60;;;;;;;-2.91;100.00;98435.16;5152690;27;20225;-78
2022/12/15 09:57:37;;;;;;;31.10;15.53;;;;;;;-2.94;100.00;98441.28;5154658;27;20189;-78
2022/12/15 10:00:19;;;;;;;26.47;13.83;;;;;;;-2.94;100.00;98445.59;5116236;27;20588;-78
2022/12/15 10:03:10;;;;;;;26.70;14.17;;;;;;;-2.86;100.00;98454.06;5149680;27;20641;-78
2022/12/15 10:05:48;;;;;;;29.03;14.20;;;;;;;-2.79;100.00;98445.28;5154207;27;20198;-78
2022/12/15 10:08:40;;;;;;;30.37;16.87;;;;;;;-2.83;100.00;98447.97;5124770;27;20198;-78
2022/12/15 10:11:21;;;;;;;29.60;16.40;;;;;;;-2.73;100.00;98450.31;5154400;27;20190;-78
2022/12/15 10:13:58;;;;;;;26.53;14.70;;;;;;;-2.76;100.00;98442.63;5154244;27;20216;-78
2022/12/15 10:16:34;;;;;;;33.70;17.13;;;;;;;-2.68;100.00;98447.63;5150378;27;20197;-78
2022/12/15 10:19:10;;;;;;;30.30;16.30;;;;;;;-2.65;100.00;98443.22;5150768;27;20257;-78
2022/12/15 10:21:38;;;;;;;26.07;13.63;;;;;;;-2.80;100.00;98432.34;5165709;27;20212;-78
2022/12/15 10:24:16;;;;;;;22.77;12.90;;;;;;;-2.70;100.00;98439.91;5169135;27;20189;-78
2022/12/15 10:27:19;;;;;;;24.40;12.77;;;;;;;-2.93;100.00;98444.72;5175299;27;20220;-78
2022/12/15 10:29:57;;;;;;;32.13;16.83;;;;;;;-2.84;100.00;98436.75;5174581;27;20216;-78
2022/12/15 10:32:32;;;;;;;30.87;15.00;;;;;;;-2.79;100.00;98434.91;5166808;27;20231;-78
2022/12/15 10:35:19;;;;;;;25.80;14.47;;;;;;;-2.81;100.00;98439.25;5173289;27;20658;-78
2022/12/15 10:37:47;;;;;;;25.87;13.03;;;;;;;-2.96;100.00;98427.50;5173101;27;20200;-78
2022/12/15 10:40:20;;;;;;;23.23;12.87;;;;;;;-2.74;100.00;98435.66;5088713;28;20203;-78
2022/12/15 10:42:52;;;;;;;24.13;13.63;;;;;;;-2.84;100.00;98438.47;5029620;28;20202;-78
2022/12/15 10:45:36;;;;;;;24.77;14.00;;;;;;;-2.94;100.00;98443.88;4932624;29;20354;-78
2022/12/15 10:48:07;;;;;;;32.60;19.20;;;;;;;-2.94;100.00;98448.19;4926790;29;20193;-78
2022/12/15 10:50:39;;;;;;;39.60;30.43;;;;;;;-3.10;100.00;98436.44;4927127;29;20189;-78
2022/12/15 10:53:09;;;;;;;20.63;11.67;;;;;;;-3.13;100.00;98437.38;4927192;29;20390;-78
2022/12/15 10:55:40;;;;;;;23.50;12.40;;;;;;;-2.98;100.00;98447.41;4930760;29;20209;-78
2022/12/15 10:58:19;;;;;;;23.63;13.23;;;;;;;-2.82;100.00;98434.97;4932188;29;20217;-78
2022/12/15 11:00:49;;;;;;;24.00;12.70;;;;;;;-2.95;100.00;98439.56;4928132;29;20268;-78
2022/12/15 11:03:24;;;;;;;21.97;13.17;;;;;;;-2.80;100.00;98433.19;4925782;29;20221;-78
2022/12/15 11:05:57;;;;;;;23.20;12.70;;;;;;;-2.64;100.00;98431.13;4965656;28;20278;-79
2022/12/15 11:08:30;;;;;;;24.70;13.23;;;;;;;-2.63;100.00;98425.03;5037961;28;20189;-79
2022/12/15 11:14:05;;;;;;;29.20;14.80;;;;;;;-2.44;100.00;98423.72;5152760;27;20221;-78
2022/12/15 11:16:34;;;;;;;29.60;14.83;;;;;;;-2.28;100.00;98425.97;5068729;28;20211;-78
2022/12/15 11:19:11;;;;;;;22.40;13.10;;;;;;;-2.25;100.00;98425.88;5065324;28;20199;-79
2022/12/15 11:21:46;;;;;;;26.07;14.23;;;;;;;-2.34;100.00;98419.16;5066629;28;20223;-79
2022/12/15 11:24:24;;;;;;;24.60;13.73;;;;;;;-2.55;100.00;98430.06;5065086;28;20274;-78
2022/12/15 11:26:59;;;;;;;23.93;13.23;;;;;;;-2.49;100.00;98412.63;5070152;28;20204;-78
2022/12/15 11:29:38;;;;;;;24.57;14.03;;;;;;;-2.14;100.00;98410.91;5065132;28;20192;-78
2022/12/15 11:32:14;;;;;;;26.10;14.00;;;;;;;-2.29;100.00;98404.38;5066905;28;20257;-79
2022/12/15 11:34:47;;;;;;;29.13;15.17;;;;;;;-2.28;100.00;98405.22;5063441;28;20254;-79
2022/12/15 11:37:37;;;;;;;28.73;16.07;;;;;;;-2.21;100.00;98407.63;5072612;28;20200;-78
2022/12/15 11:40:19;;;;;;;28.53;14.83;;;;;;;-2.05;100.00;98401.13;5066788;27;20206;-79
2022/12/15 11:43:00;;;;;;;27.77;15.10;;;;;;;-2.28;100.00;98398.28;5157507;27;20339;-78
2022/12/15 11:45:40;;;;;;;29.97;15.30;;;;;;;-2.17;100.00;98395.41;5152524;27;20246;-78
2022/12/15 11:48:16;;;;;;;27.63;15.60;;;;;;;-2.10;100.00;98402.16;5155466;27;20190;-79
2022/12/15 11:50:54;;;;;;;30.07;15.13;;;;;;;-2.38;100.00;98394.22;5156155;27;20566;-78
2022/12/15 11:53:54;;;;;;;28.47;14.90;;;;;;;-2.46;100.00;98390.97;5098620;27;20216;-78
2022/12/15 11:56:31;;;;;;;31.47;15.17;;;;;;;-2.22;100.00;98381.69;5149520;27;20198;-78
2022/12/15 11:59:23;;;;;;;29.83;15.30;;;;;;;-2.04;100.00;98378.63;5156094;27;20331;-78
2022/12/15 12:02:15;;;;;;;27.00;13.70;;;;;;;-2.12;100.00;98378.88;5156293;27;20189;-78
2022/12/15 12:05:02;;;;;;;25.57;14.20;;;;;;;-2.03;100.00;98377.75;5153526;27;20189;-78
2022/12/15 12:07:38;;;;;;;26.40;14.10;;;;;;;-2.05;100.00;98374.34;5172621;27;20185;-79
2022/12/15 12:10:22;;;;;;;26.70;13.33;;;;;;;-1.94;100.00;98377.50;5177470;27;20203;-79
2022/12/15 12:12:58;;;;;;;23.57;12.57;;;;;;;-2.06;100.00;98375.25;5171378;27;20208;-79
2022/12/15 12:15:34;;;;;;;23.23;12.20;;;;;;;-2.13;100.00;98364.16;5169813;27;20218;-78
2022/12/15 12:18:11;;;;;;;21.90;11.87;;;;;;;-1.98;100.00;98354.28;5170666;27;20201;-78
2022/12/15 12:20:45;;;;;;;23.60;11.60;;;;;;;-2.10;100.00;98360.66;5177369;27;20252;-78
2022/12/15 12:23:19;;;;;;;24.17;12.37;;;;;;;-2.05;100.00;98361.38;5172777;27;20253;-78
2022/12/15 12:25:58;;;;;;;24.13;12.53;;;;;;;-2.14;100.00;98352.09;5177238;27;20248;-78
2022/12/15 12:28:55;;;;;;;23.23;13.03;;;;;;;-2.21;100.00;98350.56;5133312;27;20291;-78
2022/12/15 12:31:35;;;;;;;23.30;12.23;;;;;;;-2.29;100.00;98343.88;5167314;27;20200;-78
2022/12/15 12:34:12;;;;;;;21.33;12.00;;;;;;;-2.24;100.00;98340.25;5175839;27;20257;-78
2022/12/15 12:36:44;;;;;;;22.23;12.40;;;;;;;-2.14;100.00;98335.69;5175225;27;20195;-78
2022/12/15 12:39:20;;;;;;;24.00;12.47;;;;;;;-2.05;100.00;98335.44;5174110;27;20209;-78
2022/12/15 12:42:00;;;;;;;24.03;12.30;;;;;;;-1.97;100.00;98341.28;5136707;27;20197;-78
2022/12/15 12:44:32;;;;;;;21.63;11.93;;;;;;;-1.98;100.00;98339.56;5092221;28;20202;-79
2022/12/15 12:47:09;;;;;;;22.70;12.60;;;;;;;-2.03;100.00;98326.75;5088401;28;20192;-79
2022/12/15 12:49:42;;;;;;;23.70;12.43;;;;;;;-1.86;100.00;98336.63;5089078;28;20199;-79
2022/12/15 12:52:20;;;;;;;23.47;12.13;;;;;;;-1.94;100.00;98328.22;5091738;28;20678;-79
2022/12/15 12:54:56;;;;;;;23.83;12.00;;;;;;;-1.80;100.00;98333.88;5092225;28;20211;-78
2022/12/15 12:57:39;;;;;;;24.80;13.27;;;;;;;-1.77;100.00;98333.78;5091953;28;20858;-78
2022/12/15 13:00:17;;;;;;;25.87;13.47;;;;;;;-1.83;100.00;98322.75;5090664;28;20195;-78
2022/12/15 13:03:15;;;;;;;24.70;13.67;;;;;;;-1.75;100.00;98325.97;5135318;27;20627;-79
2022/12/15 13:05:49;;;;;;;26.20;13.03;;;;;;;-1.85;100.00;98320.19;5176801;27;20192;-78
2022/12/15 13:08:49;;;;;;;24.37;13.00;;;;;;;-1.93;100.00;98329.94;5091564;28;20199;-79
2022/12/15 13:11:57;;;;;;;28.23;13.57;;;;;;;-1.97;100.00;98307.53;5091659;28;20233;-79
2022/12/15 13:14:45;;;;;;;24.70;13.60;;;;;;;-1.79;100.00;98306.19;5026375;28;20215;-78
2022/12/15 13:17:29;;;;;;;26.23;13.87;;;;;;;-2.09;100.00;98307.88;5090398;28;20202;-78
2022/12/15 13:20:25;;;;;;;23.70;13.00;;;;;;;-1.86;100.00;98313.28;5091805;28;20203;-79
2022/12/15 13:22:55;;;;;;;20.77;11.80;;;;;;;-1.96;100.00;98303.22;5091537;28;20191;-79
2022/12/15 13:25:43;;;;;;;22.53;12.33;;;;;;;-1.99;100.00;98301.56;5096646;27;20688;-79
2022/12/15 13:28:27;;;;;;;21.70;12.33;;;;;;;-1.91;100.00;98286.63;5132574;27;20202;-79
2022/12/15 13:31:32;;;;;;;19.73;11.17;;;;;;;-1.82;100.00;98273.41;5130142;27;20227;-79
2022/12/15 13:34:27;;;;;;;20.57;11.33;;;;;;;-1.66;100.00;98272.94;5126515;27;20298;-78
2022/12/15 13:37:02;;;;;;;22.33;11.90;;;;;;;-1.87;100.00;98266.63;5125497;27;20653;-79
2022/12/15 13:39:59;;;;;;;22.03;11.87;;;;;;;-1.54;100.00;98260.47;5128220;27;20362;-79
2022/12/15 13:42:36;;;;;;;22.10;12.23;;;;;;;-1.68;100.00;98257.41;5132779;27;20247;-78
2022/12/15 13:45:46;;;;;;;23.87;12.60;;;;;;;-1.64;100.00;98251.25;5132256;27;20709;-78
2022/12/15 13:48:40;;;;;;;23.87;12.53;;;;;;;-0.92;100.00;98239.47;5174789;27;20671;-78
2022/12/15 13:51:31;;;;;;;25.77;14.70;;;;;;;-0.89;100.00;98235.91;5091597;28;20231;-78
2022/12/15 13:54:04;;;;;;;29.67;15.77;;;;;;;-0.78;100.00;98236.38;5088319;28;20215;-77
2022/12/15 13:56:53;;;;;;;25.63;14.40;;;;;;;-1.13;100.00;98241.91;5086301;28;20190;-78
2022/12/15 13:59:34;;;;;;;23.30;12.73;;;;;;;-1.24;100.00;98231.84;5091075;28;20188;-78
2022/12/15 14:02:02;;;;;;;28.10;14.80;;;;;;;-1.24;100.00;98224.06;5085028;28;20207;-78
2022/12/15 14:04:33;;;;;;;27.20;14.20;;;;;;;-1.32;100.00;98216.50;5054555;28;20233;-79